sensor_id;sensor_type;location;lat;lon;timestamp;P1;durP1;ratioP1;P2;durP2;ratioP2
483;SDS011;228;48.922;12.198;2023-02-21T00:01:56;3.67;;;2.00;;
483;SDS011;228;48.922;12.198;2023-02-21T00:04:41;4.97;;;2.20;;
483;SDS011;228;48.922;12.198;2023-02-21T00:07:26;5.23;;;2.33;;
483;SDS011;228;48.922;12.198;2023-02-21T00:10:12;3.23;;;2.00;;
483;SDS011;228;48.922;12.198;2023-02-21T00:12:58;2.87;;;1.60;;
483;SDS011;228;48.922;12.198;2023-02-21T00:15:43;5.07;;;1.80;;
483;SDS011;228;48.922;12.198;2023-02-21T00:18:32;2.33;;;1.87;;
483;SDS011;228;48.922;12.198;2023-02-21T00:21:19;3.87;;;1.77;;
483;SDS011;228;48.922;12.198;2023-02-21T00:24:04;2.63;;;1.93;;
483;SDS011;228;48.922;12.198;2023-02-21T00:26:49;2.60;;;1.73;;
483;SDS011;228;48.922;12.198;2023-02-21T00:29:34;2.83;;;1.83;;
483;SDS011;228;48.922;12.198;2023-02-21T00:32:18;3.70;;;1.80;;
483;SDS011;228;48.922;12.198;2023-02-21T00:35:03;3.37;;;2.30;;
483;SDS011;228;48.922;12.198;2023-02-21T00:37:49;3.80;;;1.90;;
483;SDS011;228;48.922;12.198;2023-02-21T00:40:34;3.60;;;2.10;;
483;SDS011;228;48.922;12.198;2023-02-21T00:43:19;5.80;;;2.07;;
483;SDS011;228;48.922;12.198;2023-02-21T00:46:16;2.57;;;1.90;;
483;SDS011;228;48.922;12.198;2023-02-21T00:49:01;3.40;;;1.97;;
483;SDS011;228;48.922;12.198;2023-02-21T00:51:47;2.57;;;1.90;;
483;SDS011;228;48.922;12.198;2023-02-21T00:54:33;3.47;;;1.90;;
483;SDS011;228;48.922;12.198;2023-02-21T00:57:17;2.63;;;1.90;;
483;SDS011;228;48.922;12.198;2023-02-21T01:00:04;6.57;;;2.07;;
483;SDS011;228;48.922;12.198;2023-02-21T01:02:52;2.30;;;1.80;;
483;SDS011;228;48.922;12.198;2023-02-21T01:05:37;3.97;;;1.97;;
483;SDS011;228;48.922;12.198;2023-02-21T01:08:22;3.97;;;2.00;;
483;SDS011;228;48.922;12.198;2023-02-21T01:11:06;3.93;;;2.17;;
483;SDS011;228;48.922;12.198;2023-02-21T01:13:56;2.73;;;1.93;;
483;SDS011;228;48.922;12.198;2023-02-21T01:16:42;3.53;;;2.30;;
483;SDS011;228;48.922;12.198;2023-02-21T01:19:26;2.50;;;1.80;;
483;SDS011;228;48.922;12.198;2023-02-21T01:22:10;3.37;;;1.97;;
483;SDS011;228;48.922;12.198;2023-02-21T01:24:55;2.10;;;1.83;;
483;SDS011;228;48.922;12.198;2023-02-21T01:27:40;8.27;;;2.47;;
483;SDS011;228;48.922;12.198;2023-02-21T01:30:25;4.43;;;2.40;;
483;SDS011;228;48.922;12.198;2023-02-21T01:33:10;3.80;;;2.07;;
483;SDS011;228;48.922;12.198;2023-02-21T01:35:56;4.50;;;1.97;;
483;SDS011;228;48.922;12.198;2023-02-21T01:38:40;2.50;;;1.77;;
483;SDS011;228;48.922;12.198;2023-02-21T01:41:25;2.10;;;1.77;;
483;SDS011;228;48.922;12.198;2023-02-21T01:44:31;7.13;;;2.13;;
483;SDS011;228;48.922;12.198;2023-02-21T01:47:18;3.13;;;2.23;;
483;SDS011;228;48.922;12.198;2023-02-21T01:50:10;2.93;;;2.00;;
483;SDS011;228;48.922;12.198;2023-02-21T01:53:18;2.23;;;1.93;;
483;SDS011;228;48.922;12.198;2023-02-21T01:56:06;2.40;;;2.07;;
483;SDS011;228;48.922;12.198;2023-02-21T01:58:52;1.97;;;1.77;;
483;SDS011;228;48.922;12.198;2023-02-21T02:01:44;2.47;;;2.17;;
483;SDS011;228;48.922;12.198;2023-02-21T02:04:34;3.93;;;2.00;;
483;SDS011;228;48.922;12.198;2023-02-21T02:07:19;2.00;;;1.80;;
483;SDS011;228;48.922;12.198;2023-02-21T02:10:04;2.40;;;1.93;;
483;SDS011;228;48.922;12.198;2023-02-21T02:25:23;2.33;;;2.00;;
483;SDS011;228;48.922;12.198;2023-02-21T02:36:39;3.63;;;2.00;;
483;SDS011;228;48.922;12.198;2023-02-21T02:44:40;3.83;;;2.13;;
483;SDS011;228;48.922;12.198;2023-02-21T02:47:32;3.53;;;2.40;;
483;SDS011;228;48.922;12.198;2023-02-21T02:50:02;2.70;;;2.20;;
483;SDS011;228;48.922;12.198;2023-02-21T02:52:33;6.50;;;1.93;;
483;SDS011;228;48.922;12.198;2023-02-21T02:55:02;4.63;;;2.17;;
483;SDS011;228;48.922;12.198;2023-02-21T02:57:46;3.53;;;2.40;;
483;SDS011;228;48.922;12.198;2023-02-21T03:00:16;4.13;;;2.30;;
483;SDS011;228;48.922;12.198;2023-02-21T03:02:52;3.80;;;1.93;;
483;SDS011;228;48.922;12.198;2023-02-21T03:08:40;4.07;;;2.37;;
483;SDS011;228;48.922;12.198;2023-02-21T03:11:24;3.73;;;1.90;;
483;SDS011;228;48.922;12.198;2023-02-21T03:16:39;4.40;;;2.23;;
483;SDS011;228;48.922;12.198;2023-02-21T03:19:25;3.47;;;2.10;;
483;SDS011;228;48.922;12.198;2023-02-21T03:21:59;4.13;;;2.30;;
483;SDS011;228;48.922;12.198;2023-02-21T03:24:32;2.97;;;2.20;;
483;SDS011;228;48.922;12.198;2023-02-21T03:27:02;2.53;;;1.77;;
483;SDS011;228;48.922;12.198;2023-02-21T03:29:54;2.30;;;2.10;;
483;SDS011;228;48.922;12.198;2023-02-21T03:34:58;2.17;;;1.90;;
483;SDS011;228;48.922;12.198;2023-02-21T03:37:30;2.30;;;1.93;;
483;SDS011;228;48.922;12.198;2023-02-21T03:40:06;2.77;;;1.73;;
483;SDS011;228;48.922;12.198;2023-02-21T03:42:46;2.77;;;2.00;;
483;SDS011;228;48.922;12.198;2023-02-21T03:45:14;3.33;;;2.10;;
483;SDS011;228;48.922;12.198;2023-02-21T03:47:43;5.67;;;2.20;;
483;SDS011;228;48.922;12.198;2023-02-21T03:50:09;3.63;;;2.50;;
483;SDS011;228;48.922;12.198;2023-02-21T03:52:39;2.73;;;1.97;;
483;SDS011;228;48.922;12.198;2023-02-21T03:55:06;2.83;;;1.90;;
483;SDS011;228;48.922;12.198;2023-02-21T03:57:33;3.33;;;2.03;;
483;SDS011;228;48.922;12.198;2023-02-21T03:59:59;2.67;;;2.00;;
483;SDS011;228;48.922;12.198;2023-02-21T04:02:26;3.40;;;2.13;;
483;SDS011;228;48.922;12.198;2023-02-21T04:04:53;3.03;;;2.07;;
483;SDS011;228;48.922;12.198;2023-02-21T04:07:21;2.70;;;2.13;;
483;SDS011;228;48.922;12.198;2023-02-21T04:09:48;3.13;;;2.10;;
483;SDS011;228;48.922;12.198;2023-02-21T04:12:20;3.60;;;2.10;;
483;SDS011;228;48.922;12.198;2023-02-21T04:14:47;4.20;;;2.30;;
483;SDS011;228;48.922;12.198;2023-02-21T04:17:13;2.40;;;2.03;;
483;SDS011;228;48.922;12.198;2023-02-21T04:19:41;5.33;;;2.13;;
483;SDS011;228;48.922;12.198;2023-02-21T04:22:08;3.27;;;2.10;;
483;SDS011;228;48.922;12.198;2023-02-21T04:24:35;3.57;;;2.20;;
483;SDS011;228;48.922;12.198;2023-02-21T04:27:01;3.07;;;2.13;;
483;SDS011;228;48.922;12.198;2023-02-21T04:29:29;3.20;;;2.17;;
483;SDS011;228;48.922;12.198;2023-02-21T04:31:55;2.40;;;2.20;;
483;SDS011;228;48.922;12.198;2023-02-21T04:34:22;5.33;;;2.37;;
483;SDS011;228;48.922;12.198;2023-02-21T04:36:48;2.83;;;2.13;;
483;SDS011;228;48.922;12.198;2023-02-21T04:39:15;3.70;;;2.30;;
483;SDS011;228;48.922;12.198;2023-02-21T04:41:41;5.03;;;2.50;;
483;SDS011;228;48.922;12.198;2023-02-21T04:44:08;4.00;;;2.07;;
483;SDS011;228;48.922;12.198;2023-02-21T04:46:34;3.67;;;2.53;;
483;SDS011;228;48.922;12.198;2023-02-21T04:49:00;2.80;;;2.07;;
483;SDS011;228;48.922;12.198;2023-02-21T04:51:26;4.00;;;2.53;;
483;SDS011;228;48.922;12.198;2023-02-21T04:53:53;3.17;;;2.50;;
483;SDS011;228;48.922;12.198;2023-02-21T04:56:20;3.93;;;2.40;;
483;SDS011;228;48.922;12.198;2023-02-21T04:58:50;3.57;;;2.80;;
483;SDS011;228;48.922;12.198;2023-02-21T05:01:16;4.33;;;2.60;;
483;SDS011;228;48.922;12.198;2023-02-21T05:03:44;4.57;;;2.70;;
483;SDS011;228;48.922;12.198;2023-02-21T05:06:18;2.83;;;2.20;;
483;SDS011;228;48.922;12.198;2023-02-21T05:08:49;4.07;;;2.77;;
483;SDS011;228;48.922;12.198;2023-02-21T05:11:16;3.33;;;2.60;;
483;SDS011;228;48.922;12.198;2023-02-21T05:13:44;3.33;;;2.43;;
483;SDS011;228;48.922;12.198;2023-02-21T05:16:10;5.47;;;2.80;;
483;SDS011;228;48.922;12.198;2023-02-21T05:18:36;4.53;;;2.50;;
483;SDS011;228;48.922;12.198;2023-02-21T05:21:04;3.67;;;2.23;;
483;SDS011;228;48.922;12.198;2023-02-21T05:23:30;3.63;;;2.50;;
483;SDS011;228;48.922;12.198;2023-02-21T05:26:01;3.90;;;2.50;;
483;SDS011;228;48.922;12.198;2023-02-21T05:28:35;4.73;;;2.60;;
483;SDS011;228;48.922;12.198;2023-02-21T05:31:03;2.70;;;2.40;;
483;SDS011;228;48.922;12.198;2023-02-21T05:33:29;4.87;;;2.90;;
483;SDS011;228;48.922;12.198;2023-02-21T05:35:55;3.47;;;2.33;;
483;SDS011;228;48.922;12.198;2023-02-21T05:38:22;3.20;;;2.50;;
483;SDS011;228;48.922;12.198;2023-02-21T05:40:49;5.00;;;2.50;;
483;SDS011;228;48.922;12.198;2023-02-21T05:43:16;2.47;;;2.27;;
483;SDS011;228;48.922;12.198;2023-02-21T05:45:42;4.30;;;2.93;;
483;SDS011;228;48.922;12.198;2023-02-21T05:48:08;5.90;;;3.33;;
483;SDS011;228;48.922;12.198;2023-02-21T05:50:34;3.53;;;2.97;;
483;SDS011;228;48.922;12.198;2023-02-21T05:53:00;6.27;;;2.83;;
483;SDS011;228;48.922;12.198;2023-02-21T05:55:27;3.87;;;2.60;;
483;SDS011;228;48.922;12.198;2023-02-21T05:57:53;5.80;;;3.27;;
483;SDS011;228;48.922;12.198;2023-02-21T06:00:21;4.57;;;2.43;;
483;SDS011;228;48.922;12.198;2023-02-21T06:02:51;2.63;;;2.40;;
483;SDS011;228;48.922;12.198;2023-02-21T06:05:18;4.00;;;2.90;;
483;SDS011;228;48.922;12.198;2023-02-21T06:07:45;4.90;;;2.53;;
483;SDS011;228;48.922;12.198;2023-02-21T06:10:11;7.17;;;2.87;;
483;SDS011;228;48.922;12.198;2023-02-21T06:12:38;4.47;;;2.97;;
483;SDS011;228;48.922;12.198;2023-02-21T06:15:04;7.17;;;3.10;;
483;SDS011;228;48.922;12.198;2023-02-21T06:17:32;3.83;;;2.43;;
483;SDS011;228;48.922;12.198;2023-02-21T06:19:58;5.43;;;3.40;;
483;SDS011;228;48.922;12.198;2023-02-21T06:22:24;4.40;;;2.97;;
483;SDS011;228;48.922;12.198;2023-02-21T06:24:50;3.53;;;2.87;;
483;SDS011;228;48.922;12.198;2023-02-21T06:27:16;4.90;;;2.90;;
483;SDS011;228;48.922;12.198;2023-02-21T06:29:42;5.57;;;2.57;;
483;SDS011;228;48.922;12.198;2023-02-21T06:32:08;4.23;;;2.73;;
483;SDS011;228;48.922;12.198;2023-02-21T06:34:34;6.20;;;3.10;;
483;SDS011;228;48.922;12.198;2023-02-21T06:37:00;4.73;;;3.40;;
483;SDS011;228;48.922;12.198;2023-02-21T06:39:27;4.27;;;3.07;;
483;SDS011;228;48.922;12.198;2023-02-21T06:41:53;6.30;;;3.57;;
483;SDS011;228;48.922;12.198;2023-02-21T06:44:19;8.60;;;3.30;;
483;SDS011;228;48.922;12.198;2023-02-21T06:46:46;5.20;;;3.63;;
483;SDS011;228;48.922;12.198;2023-02-21T06:49:14;3.97;;;3.57;;
483;SDS011;228;48.922;12.198;2023-02-21T06:51:41;6.00;;;3.57;;
483;SDS011;228;48.922;12.198;2023-02-21T06:54:07;8.37;;;3.87;;
483;SDS011;228;48.922;12.198;2023-02-21T06:56:34;5.63;;;3.47;;
483;SDS011;228;48.922;12.198;2023-02-21T06:59:00;8.23;;;3.70;;
483;SDS011;228;48.922;12.198;2023-02-21T07:01:28;5.73;;;3.43;;
483;SDS011;228;48.922;12.198;2023-02-21T07:03:55;18.97;;;8.57;;
483;SDS011;228;48.922;12.198;2023-02-21T07:06:23;16.70;;;5.57;;
483;SDS011;228;48.922;12.198;2023-02-21T07:08:49;7.83;;;3.73;;
483;SDS011;228;48.922;12.198;2023-02-21T07:11:16;8.63;;;3.47;;
483;SDS011;228;48.922;12.198;2023-02-21T07:13:50;4.50;;;3.43;;
483;SDS011;228;48.922;12.198;2023-02-21T07:16:18;5.57;;;4.53;;
483;SDS011;228;48.922;12.198;2023-02-21T07:18:45;5.60;;;4.27;;
483;SDS011;228;48.922;12.198;2023-02-21T07:21:12;6.20;;;4.37;;
483;SDS011;228;48.922;12.198;2023-02-21T07:23:39;7.43;;;3.50;;
483;SDS011;228;48.922;12.198;2023-02-21T07:26:09;4.70;;;3.83;;
483;SDS011;228;48.922;12.198;2023-02-21T07:28:35;6.30;;;3.67;;
483;SDS011;228;48.922;12.198;2023-02-21T07:31:01;6.67;;;4.40;;
483;SDS011;228;48.922;12.198;2023-02-21T07:33:28;6.57;;;4.50;;
483;SDS011;228;48.922;12.198;2023-02-21T07:35:54;5.77;;;3.73;;
483;SDS011;228;48.922;12.198;2023-02-21T07:38:24;4.33;;;3.60;;
483;SDS011;228;48.922;12.198;2023-02-21T07:40:53;6.90;;;4.37;;
483;SDS011;228;48.922;12.198;2023-02-21T07:43:21;9.23;;;5.80;;
483;SDS011;228;48.922;12.198;2023-02-21T07:45:47;5.13;;;3.60;;
483;SDS011;228;48.922;12.198;2023-02-21T07:48:13;6.53;;;3.70;;
483;SDS011;228;48.922;12.198;2023-02-21T07:50:39;5.50;;;4.00;;
483;SDS011;228;48.922;12.198;2023-02-21T07:53:07;6.90;;;3.80;;
483;SDS011;228;48.922;12.198;2023-02-21T07:55:33;4.90;;;3.23;;
483;SDS011;228;48.922;12.198;2023-02-21T07:58:00;5.00;;;3.47;;
483;SDS011;228;48.922;12.198;2023-02-21T08:00:26;5.70;;;3.97;;
483;SDS011;228;48.922;12.198;2023-02-21T08:02:52;7.03;;;4.10;;
483;SDS011;228;48.922;12.198;2023-02-21T08:05:18;6.03;;;4.23;;
483;SDS011;228;48.922;12.198;2023-02-21T08:07:45;5.80;;;4.13;;
483;SDS011;228;48.922;12.198;2023-02-21T08:10:12;6.00;;;3.87;;
483;SDS011;228;48.922;12.198;2023-02-21T08:12:50;5.97;;;4.10;;
483;SDS011;228;48.922;12.198;2023-02-21T08:15:17;4.70;;;3.30;;
483;SDS011;228;48.922;12.198;2023-02-21T08:17:44;4.90;;;3.77;;
483;SDS011;228;48.922;12.198;2023-02-21T08:20:14;4.77;;;3.33;;
483;SDS011;228;48.922;12.198;2023-02-21T08:22:40;4.33;;;3.30;;
483;SDS011;228;48.922;12.198;2023-02-21T08:25:06;5.63;;;3.50;;
483;SDS011;228;48.922;12.198;2023-02-21T08:27:41;6.00;;;3.63;;
483;SDS011;228;48.922;12.198;2023-02-21T08:30:09;6.47;;;4.17;;
483;SDS011;228;48.922;12.198;2023-02-21T08:32:38;3.77;;;2.90;;
483;SDS011;228;48.922;12.198;2023-02-21T08:35:06;6.27;;;3.60;;
483;SDS011;228;48.922;12.198;2023-02-21T08:37:32;4.47;;;3.03;;
483;SDS011;228;48.922;12.198;2023-02-21T08:40:01;5.00;;;3.33;;
483;SDS011;228;48.922;12.198;2023-02-21T08:42:29;3.87;;;3.50;;
483;SDS011;228;48.922;12.198;2023-02-21T08:44:55;3.80;;;3.47;;
483;SDS011;228;48.922;12.198;2023-02-21T08:47:21;7.67;;;4.33;;
483;SDS011;228;48.922;12.198;2023-02-21T08:49:47;4.90;;;4.37;;
483;SDS011;228;48.922;12.198;2023-02-21T08:52:14;5.83;;;3.63;;
483;SDS011;228;48.922;12.198;2023-02-21T08:54:43;5.63;;;4.20;;
483;SDS011;228;48.922;12.198;2023-02-21T08:57:09;8.90;;;3.80;;
483;SDS011;228;48.922;12.198;2023-02-21T08:59:39;7.73;;;4.20;;
483;SDS011;228;48.922;12.198;2023-02-21T09:02:14;6.30;;;4.20;;
483;SDS011;228;48.922;12.198;2023-02-21T09:04:47;5.77;;;3.70;;
483;SDS011;228;48.922;12.198;2023-02-21T09:07:14;3.60;;;3.13;;
483;SDS011;228;48.922;12.198;2023-02-21T09:09:42;8.13;;;3.60;;
483;SDS011;228;48.922;12.198;2023-02-21T09:12:08;6.90;;;3.60;;
483;SDS011;228;48.922;12.198;2023-02-21T09:14:35;7.53;;;3.70;;
483;SDS011;228;48.922;12.198;2023-02-21T09:17:03;4.20;;;3.30;;
483;SDS011;228;48.922;12.198;2023-02-21T09:19:30;3.60;;;2.93;;
483;SDS011;228;48.922;12.198;2023-02-21T09:21:57;5.73;;;3.10;;
483;SDS011;228;48.922;12.198;2023-02-21T09:24:23;4.40;;;3.20;;
483;SDS011;228;48.922;12.198;2023-02-21T09:26:51;6.67;;;3.17;;
483;SDS011;228;48.922;12.198;2023-02-21T09:29:29;6.47;;;3.50;;
483;SDS011;228;48.922;12.198;2023-02-21T09:32:00;7.47;;;3.23;;
483;SDS011;228;48.922;12.198;2023-02-21T09:34:27;3.97;;;3.10;;
483;SDS011;228;48.922;12.198;2023-02-21T09:36:55;4.83;;;3.17;;
483;SDS011;228;48.922;12.198;2023-02-21T09:39:21;11.07;;;6.57;;
483;SDS011;228;48.922;12.198;2023-02-21T09:41:48;11.77;;;6.97;;
483;SDS011;228;48.922;12.198;2023-02-21T09:44:22;7.63;;;4.27;;
483;SDS011;228;48.922;12.198;2023-02-21T09:46:53;11.23;;;6.57;;
483;SDS011;228;48.922;12.198;2023-02-21T09:49:26;15.03;;;8.40;;
483;SDS011;228;48.922;12.198;2023-02-21T09:51:57;8.30;;;6.87;;
483;SDS011;228;48.922;12.198;2023-02-21T09:54:36;8.33;;;3.27;;
483;SDS011;228;48.922;12.198;2023-02-21T09:57:08;5.33;;;3.57;;
483;SDS011;228;48.922;12.198;2023-02-21T09:59:39;5.67;;;3.43;;
483;SDS011;228;48.922;12.198;2023-02-21T10:08:00;7.00;;;4.17;;
483;SDS011;228;48.922;12.198;2023-02-21T10:10:44;5.37;;;3.47;;
483;SDS011;228;48.922;12.198;2023-02-21T10:18:44;5.20;;;3.40;;
483;SDS011;228;48.922;12.198;2023-02-21T10:21:36;7.13;;;4.20;;
483;SDS011;228;48.922;12.198;2023-02-21T10:24:18;5.40;;;3.57;;
483;SDS011;228;48.922;12.198;2023-02-21T10:29:40;4.60;;;3.17;;
483;SDS011;228;48.922;12.198;2023-02-21T10:32:26;5.43;;;3.90;;
483;SDS011;228;48.922;12.198;2023-02-21T10:34:53;7.93;;;4.93;;
483;SDS011;228;48.922;12.198;2023-02-21T10:48:40;7.07;;;3.00;;
483;SDS011;228;48.922;12.198;2023-02-21T10:51:12;5.83;;;3.60;;
483;SDS011;228;48.922;12.198;2023-02-21T10:53:41;4.60;;;3.50;;
483;SDS011;228;48.922;12.198;2023-02-21T11:01:41;7.93;;;4.00;;
483;SDS011;228;48.922;12.198;2023-02-21T11:06:54;4.93;;;3.30;;
483;SDS011;228;48.922;12.198;2023-02-21T11:20:31;4.63;;;2.80;;
483;SDS011;228;48.922;12.198;2023-02-21T11:22:51;4.60;;;3.10;;
483;SDS011;228;48.922;12.198;2023-02-21T11:28:30;4.87;;;3.00;;
483;SDS011;228;48.922;12.198;2023-02-21T11:33:25;5.33;;;2.80;;
483;SDS011;228;48.922;12.198;2023-02-21T11:36:05;3.73;;;2.80;;
483;SDS011;228;48.922;12.198;2023-02-21T11:38:39;4.63;;;3.07;;
483;SDS011;228;48.922;12.198;2023-02-21T11:41:44;3.13;;;2.70;;
483;SDS011;228;48.922;12.198;2023-02-21T11:44:48;5.03;;;2.70;;
483;SDS011;228;48.922;12.198;2023-02-21T11:49:52;3.97;;;2.90;;
483;SDS011;228;48.922;12.198;2023-02-21T11:55:23;4.83;;;3.00;;
483;SDS011;228;48.922;12.198;2023-02-21T12:01:03;4.23;;;2.50;;
483;SDS011;228;48.922;12.198;2023-02-21T12:06:37;4.35;;;2.85;;
483;SDS011;228;48.922;12.198;2023-02-21T12:09:27;4.32;;;2.50;;
483;SDS011;228;48.922;12.198;2023-02-21T12:17:53;5.97;;;5.38;;
483;SDS011;228;48.922;12.198;2023-02-21T12:23:42;3.72;;;2.90;;
483;SDS011;228;48.922;12.198;2023-02-21T12:30:06;4.45;;;2.97;;
483;SDS011;228;48.922;12.198;2023-02-21T12:35:50;4.57;;;2.67;;
483;SDS011;228;48.922;12.198;2023-02-21T12:38:52;3.33;;;2.70;;
483;SDS011;228;48.922;12.198;2023-02-21T12:42:03;3.67;;;3.10;;
483;SDS011;228;48.922;12.198;2023-02-21T12:47:30;3.10;;;2.70;;
483;SDS011;228;48.922;12.198;2023-02-21T12:52:54;4.00;;;3.13;;
483;SDS011;228;48.922;12.198;2023-02-21T12:55:35;3.30;;;2.90;;
483;SDS011;228;48.922;12.198;2023-02-21T12:58:25;4.88;;;3.60;;
483;SDS011;228;48.922;12.198;2023-02-21T13:01:01;3.78;;;2.90;;
483;SDS011;228;48.922;12.198;2023-02-21T13:07:03;4.20;;;2.90;;
483;SDS011;228;48.922;12.198;2023-02-21T13:12:36;3.88;;;2.67;;
483;SDS011;228;48.922;12.198;2023-02-21T13:17:41;3.28;;;2.40;;
483;SDS011;228;48.922;12.198;2023-02-21T13:20:11;3.22;;;2.55;;
483;SDS011;228;48.922;12.198;2023-02-21T13:28:40;3.28;;;2.40;;
483;SDS011;228;48.922;12.198;2023-02-21T13:31:17;2.72;;;2.28;;
483;SDS011;228;48.922;12.198;2023-02-21T13:33:56;2.65;;;2.22;;
483;SDS011;228;48.922;12.198;2023-02-21T13:39:10;2.22;;;2.00;;
483;SDS011;228;48.922;12.198;2023-02-21T13:41:42;2.90;;;2.33;;
483;SDS011;228;48.922;12.198;2023-02-21T13:44:30;3.42;;;2.42;;
483;SDS011;228;48.922;12.198;2023-02-21T13:52:13;2.40;;;2.13;;
483;SDS011;228;48.922;12.198;2023-02-21T13:57:44;2.10;;;1.90;;
483;SDS011;228;48.922;12.198;2023-02-21T14:02:54;2.72;;;2.40;;
483;SDS011;228;48.922;12.198;2023-02-21T14:05:22;3.58;;;2.55;;
483;SDS011;228;48.922;12.198;2023-02-21T14:07:54;3.10;;;2.33;;
483;SDS011;228;48.922;12.198;2023-02-21T14:10:28;3.88;;;2.53;;
483;SDS011;228;48.922;12.198;2023-02-21T14:13:07;2.45;;;2.20;;
483;SDS011;228;48.922;12.198;2023-02-21T14:15:56;3.03;;;2.38;;
483;SDS011;228;48.922;12.198;2023-02-21T14:21:11;2.25;;;2.05;;
483;SDS011;228;48.922;12.198;2023-02-21T14:24:20;2.38;;;2.10;;
483;SDS011;228;48.922;12.198;2023-02-21T14:26:52;2.33;;;2.13;;
483;SDS011;228;48.922;12.198;2023-02-21T14:40:03;4.75;;;4.15;;
483;SDS011;228;48.922;12.198;2023-02-21T14:46:29;3.78;;;1.98;;
483;SDS011;228;48.922;12.198;2023-02-21T14:52:22;3.10;;;2.22;;
483;SDS011;228;48.922;12.198;2023-02-21T15:09:35;3.03;;;2.17;;
483;SDS011;228;48.922;12.198;2023-02-21T15:12:02;5.95;;;2.20;;
483;SDS011;228;48.922;12.198;2023-02-21T15:14:48;4.03;;;2.17;;
483;SDS011;228;48.922;12.198;2023-02-21T15:17:17;2.40;;;2.10;;
483;SDS011;228;48.922;12.198;2023-02-21T15:19:47;2.65;;;2.25;;
483;SDS011;228;48.922;12.198;2023-02-21T15:22:37;2.70;;;2.30;;
483;SDS011;228;48.922;12.198;2023-02-21T15:27:36;2.38;;;2.17;;
483;SDS011;228;48.922;12.198;2023-02-21T15:30:29;2.38;;;2.03;;
483;SDS011;228;48.922;12.198;2023-02-21T15:33:16;3.05;;;1.92;;
483;SDS011;228;48.922;12.198;2023-02-21T15:35:51;2.58;;;1.98;;
483;SDS011;228;48.922;12.198;2023-02-21T15:41:08;3.45;;;2.20;;
483;SDS011;228;48.922;12.198;2023-02-21T15:46:29;1.90;;;1.70;;
483;SDS011;228;48.922;12.198;2023-02-21T15:49:04;2.70;;;2.03;;
483;SDS011;228;48.922;12.198;2023-02-21T15:51:31;2.53;;;2.00;;
483;SDS011;228;48.922;12.198;2023-02-21T15:54:07;2.77;;;2.20;;
483;SDS011;228;48.922;12.198;2023-02-21T15:57:38;2.07;;;1.87;;
483;SDS011;228;48.922;12.198;2023-02-21T15:59:50;3.67;;;2.30;;
483;SDS011;228;48.922;12.198;2023-02-21T16:02:47;3.20;;;2.10;;
483;SDS011;228;48.922;12.198;2023-02-21T16:05:26;1.93;;;1.73;;
483;SDS011;228;48.922;12.198;2023-02-21T16:08:01;3.03;;;1.90;;
483;SDS011;228;48.922;12.198;2023-02-21T16:10:29;4.13;;;2.10;;
483;SDS011;228;48.922;12.198;2023-02-21T16:12:57;2.97;;;1.87;;
483;SDS011;228;48.922;12.198;2023-02-21T16:15:30;2.07;;;1.70;;
483;SDS011;228;48.922;12.198;2023-02-21T16:18:00;3.07;;;1.97;;
483;SDS011;228;48.922;12.198;2023-02-21T16:20:31;3.87;;;2.00;;
483;SDS011;228;48.922;12.198;2023-02-21T16:28:37;2.40;;;2.07;;
483;SDS011;228;48.922;12.198;2023-02-21T16:31:05;3.47;;;2.00;;
483;SDS011;228;48.922;12.198;2023-02-21T16:33:40;3.30;;;2.00;;
483;SDS011;228;48.922;12.198;2023-02-21T16:36:08;3.03;;;1.90;;
483;SDS011;228;48.922;12.198;2023-02-21T16:38:43;3.73;;;2.07;;
483;SDS011;228;48.922;12.198;2023-02-21T16:41:12;4.03;;;2.10;;
483;SDS011;228;48.922;12.198;2023-02-21T16:43:39;2.07;;;1.87;;
483;SDS011;228;48.922;12.198;2023-02-21T16:46:05;2.10;;;1.70;;
483;SDS011;228;48.922;12.198;2023-02-21T16:48:32;4.37;;;1.80;;
483;SDS011;228;48.922;12.198;2023-02-21T16:50:59;2.87;;;2.00;;
483;SDS011;228;48.922;12.198;2023-02-21T16:53:27;3.37;;;1.83;;
483;SDS011;228;48.922;12.198;2023-02-21T16:55:53;4.07;;;1.90;;
483;SDS011;228;48.922;12.198;2023-02-21T17:00:57;1.70;;;1.60;;
483;SDS011;228;48.922;12.198;2023-02-21T17:03:30;1.77;;;1.63;;
483;SDS011;228;48.922;12.198;2023-02-21T17:05:56;2.87;;;1.77;;
483;SDS011;228;48.922;12.198;2023-02-21T17:08:24;4.17;;;3.77;;
483;SDS011;228;48.922;12.198;2023-02-21T17:10:51;11.20;;;7.73;;
483;SDS011;228;48.922;12.198;2023-02-21T17:13:18;6.60;;;4.60;;
483;SDS011;228;48.922;12.198;2023-02-21T17:15:44;6.73;;;3.90;;
483;SDS011;228;48.922;12.198;2023-02-21T17:18:11;4.37;;;3.40;;
483;SDS011;228;48.922;12.198;2023-02-21T17:20:38;4.60;;;3.03;;
483;SDS011;228;48.922;12.198;2023-02-21T17:23:04;3.53;;;2.43;;
483;SDS011;228;48.922;12.198;2023-02-21T17:25:30;3.20;;;2.80;;
483;SDS011;228;48.922;12.198;2023-02-21T17:27:59;3.67;;;2.87;;
483;SDS011;228;48.922;12.198;2023-02-21T17:30:25;3.47;;;2.70;;
483;SDS011;228;48.922;12.198;2023-02-21T17:32:51;3.53;;;2.60;;
483;SDS011;228;48.922;12.198;2023-02-21T17:35:18;2.40;;;2.20;;
483;SDS011;228;48.922;12.198;2023-02-21T17:37:46;2.90;;;2.07;;
483;SDS011;228;48.922;12.198;2023-02-21T17:40:14;4.33;;;2.10;;
483;SDS011;228;48.922;12.198;2023-02-21T17:42:43;2.63;;;1.87;;
483;SDS011;228;48.922;12.198;2023-02-21T17:45:09;4.33;;;2.13;;
483;SDS011;228;48.922;12.198;2023-02-21T17:47:35;4.07;;;2.00;;
483;SDS011;228;48.922;12.198;2023-02-21T17:50:02;2.10;;;1.90;;
483;SDS011;228;48.922;12.198;2023-02-21T17:52:30;3.17;;;1.80;;
483;SDS011;228;48.922;12.198;2023-02-21T17:54:59;1.97;;;1.70;;
483;SDS011;228;48.922;12.198;2023-02-21T17:57:35;2.40;;;2.07;;
483;SDS011;228;48.922;12.198;2023-02-21T18:00:06;3.73;;;2.00;;
483;SDS011;228;48.922;12.198;2023-02-21T18:02:39;2.63;;;1.67;;
483;SDS011;228;48.922;12.198;2023-02-21T18:05:05;5.07;;;2.03;;
483;SDS011;228;48.922;12.198;2023-02-21T18:07:33;2.73;;;2.20;;
483;SDS011;228;48.922;12.198;2023-02-21T18:10:00;3.10;;;1.90;;
483;SDS011;228;48.922;12.198;2023-02-21T18:12:28;2.57;;;2.00;;
483;SDS011;228;48.922;12.198;2023-02-21T18:14:57;2.47;;;2.10;;
483;SDS011;228;48.922;12.198;2023-02-21T18:17:24;3.60;;;1.80;;
483;SDS011;228;48.922;12.198;2023-02-21T18:19:50;2.50;;;1.90;;
483;SDS011;228;48.922;12.198;2023-02-21T18:22:16;2.83;;;2.00;;
483;SDS011;228;48.922;12.198;2023-02-21T18:24:42;3.43;;;2.20;;
483;SDS011;228;48.922;12.198;2023-02-21T18:27:09;2.40;;;1.90;;
483;SDS011;228;48.922;12.198;2023-02-21T18:29:38;3.93;;;2.33;;
483;SDS011;228;48.922;12.198;2023-02-21T18:32:04;4.93;;;1.70;;
483;SDS011;228;48.922;12.198;2023-02-21T18:34:31;4.97;;;2.03;;
483;SDS011;228;48.922;12.198;2023-02-21T18:36:58;3.70;;;2.30;;
483;SDS011;228;48.922;12.198;2023-02-21T18:39:24;3.80;;;2.47;;
483;SDS011;228;48.922;12.198;2023-02-21T18:41:51;3.80;;;2.30;;
483;SDS011;228;48.922;12.198;2023-02-21T18:44:17;4.03;;;2.20;;
483;SDS011;228;48.922;12.198;2023-02-21T18:46:47;6.37;;;3.00;;
483;SDS011;228;48.922;12.198;2023-02-21T18:49:21;7.80;;;4.77;;
483;SDS011;228;48.922;12.198;2023-02-21T18:51:47;6.57;;;3.83;;
483;SDS011;228;48.922;12.198;2023-02-21T18:54:13;11.50;;;6.13;;
483;SDS011;228;48.922;12.198;2023-02-21T18:56:44;9.93;;;6.20;;
483;SDS011;228;48.922;12.198;2023-02-21T18:59:16;8.47;;;6.03;;
483;SDS011;228;48.922;12.198;2023-02-21T19:01:48;7.93;;;5.90;;
483;SDS011;228;48.922;12.198;2023-02-21T19:04:17;9.73;;;6.77;;
483;SDS011;228;48.922;12.198;2023-02-21T19:06:44;7.47;;;5.73;;
483;SDS011;228;48.922;12.198;2023-02-21T19:09:10;12.43;;;6.33;;
483;SDS011;228;48.922;12.198;2023-02-21T19:11:37;10.23;;;6.10;;
483;SDS011;228;48.922;12.198;2023-02-21T19:14:03;8.57;;;6.17;;
483;SDS011;228;48.922;12.198;2023-02-21T19:16:30;8.67;;;5.73;;
483;SDS011;228;48.922;12.198;2023-02-21T19:18:57;8.60;;;5.67;;
483;SDS011;228;48.922;12.198;2023-02-21T19:21:24;10.63;;;8.10;;
483;SDS011;228;48.922;12.198;2023-02-21T19:23:51;8.93;;;6.23;;